Time;durP1;ratioP1;P1;durP2;ratioP2;P2;SDS_P1;SDS_P2;PMS_P1;PMS_P2;Temp;Humidity;BMP_temperature;BMP_pressure;BME280_temperature;BME280_humidity;BME280_pressure;Samples;Min_cycle;Max_cycle;Signal;HPM_P1;HPM_P2
2023/11/20 00:01:55;;;;;;;7.80;5.20;;;;;;;-0.81;62.95;100170.27;107926;1257;61136;-69
2023/11/20 00:04:23;;;;;;;8.30;5.50;;;;;;;-0.83;63.21;100172.57;107821;1257;74541;-68
2023/11/20 00:06:51;;;;;;;8.80;5.80;;;;;;;-0.85;63.20;100168.84;107594;1258;72512;-67
2023/11/20 00:09:19;;;;;;;10.90;6.40;;;;;;;-0.87;63.24;100167.85;107854;1259;73979;-67
2023/11/20 00:11:47;;;;;;;8.00;5.20;;;;;;;-0.86;63.36;100168.10;107826;1257;61081;-69
2023/11/20 00:14:15;;;;;;;8.90;5.90;;;;;;;-0.84;63.37;100171.84;107828;1257;61089;-67
2023/11/20 00:16:42;;;;;;;7.90;5.50;;;;;;;-0.82;63.36;100171.48;107789;1257;74600;-67
2023/11/20 00:19:10;;;;;;;9.80;5.90;;;;;;;-0.82;63.49;100166.89;107794;1257;73761;-67
2023/11/20 00:21:40;;;;;;;7.80;5.10;;;;;;;-0.83;63.58;100167.70;107815;1259;72486;-68
2023/11/20 00:24:08;;;;;;;8.70;5.60;;;;;;;-0.86;63.53;100170.48;107832;1259;61304;-69
2023/11/20 00:26:37;;;;;;;7.00;4.90;;;;;;;-0.87;63.75;100169.48;107855;1257;61939;-69
2023/11/20 00:29:05;;;;;;;9.70;5.70;;;;;;;-0.87;63.61;100173.14;107839;1257;74585;-68
2023/11/20 00:31:34;;;;;;;10.60;6.00;;;;;;;-0.87;63.83;100169.71;107842;1259;72715;-69
2023/11/20 00:34:03;;;;;;;9.00;5.20;;;;;;;-0.89;63.57;100169.52;107797;1259;70539;-69
2023/11/20 00:36:31;;;;;;;10.00;5.60;;;;;;;-0.91;63.81;100170.34;107688;1259;61214;-69
2023/11/20 00:38:59;;;;;;;10.00;5.70;;;;;;;-0.91;63.83;100168.08;107707;1259;61267;-69
2023/11/20 00:41:30;;;;;;;9.50;6.00;;;;;;;-0.92;63.93;100168.84;107724;1258;73526;-68
2023/11/20 00:44:01;;;;;;;10.70;6.30;;;;;;;-0.94;63.89;100166.79;107752;1259;72938;-69
2023/11/20 00:46:29;;;;;;;11.30;5.90;;;;;;;-0.95;64.04;100163.13;107724;1259;71726;-69
2023/11/20 00:48:57;;;;;;;9.80;6.00;;;;;;;-0.93;63.95;100166.56;107822;1260;61160;-69
2023/11/20 00:51:25;;;;;;;10.90;6.40;;;;;;;-0.94;64.17;100162.28;107666;1257;59975;-69
2023/11/20 00:53:53;;;;;;;8.50;5.70;;;;;;;-0.94;64.07;100163.86;107802;1260;73820;-69
2023/11/20 00:56:21;;;;;;;10.70;6.20;;;;;;;-0.96;64.21;100164.98;107585;1257;72785;-69
2023/11/20 00:58:49;;;;;;;10.20;6.00;;;;;;;-0.98;64.34;100165.64;107799;1259;72025;-69
2023/11/20 01:01:16;;;;;;;9.30;5.70;;;;;;;-1.01;64.18;100161.08;107758;1257;61112;-69
2023/11/20 01:03:44;;;;;;;9.40;6.30;;;;;;;-1.01;64.35;100159.54;107626;1257;61109;-68
2023/11/20 01:06:13;;;;;;;10.50;6.60;;;;;;;-1.00;64.73;100156.42;107827;1258;74686;-68
2023/11/20 01:08:41;;;;;;;9.00;6.40;;;;;;;-0.99;64.57;100155.22;107792;1257;73344;-68
2023/11/20 01:11:09;;;;;;;9.40;6.50;;;;;;;-1.00;64.65;100149.54;107720;1257;71675;-69
2023/11/20 01:13:37;;;;;;;10.20;6.40;;;;;;;-1.01;64.67;100144.25;107735;1257;61109;-67
2023/11/20 01:16:05;;;;;;;10.40;6.60;;;;;;;-1.01;64.60;100143.77;107796;1257;61138;-68
2023/11/20 01:18:33;;;;;;;9.60;6.50;;;;;;;-1.01;64.85;100142.55;107819;1257;74715;-68
2023/11/20 01:21:01;;;;;;;11.10;6.50;;;;;;;-1.01;64.70;100143.20;107842;1257;72105;-68
2023/11/20 01:23:29;;;;;;;10.10;6.20;;;;;;;-1.00;64.78;100144.02;107767;1257;70283;-68
2023/11/20 01:25:57;;;;;;;9.40;5.90;;;;;;;-1.00;64.74;100146.30;107807;1257;61253;-69
2023/11/20 01:28:25;;;;;;;8.80;6.50;;;;;;;-1.02;64.95;100141.45;107807;1259;61148;-69
2023/11/20 01:30:52;;;;;;;10.00;6.60;;;;;;;-1.02;64.83;100141.33;107680;1258;74686;-68
2023/11/20 01:33:20;;;;;;;9.20;6.30;;;;;;;-1.02;64.87;100137.06;107653;1259;71604;-68
2023/11/20 01:35:48;;;;;;;9.30;5.80;;;;;;;-1.03;64.94;100132.45;107683;1259;72711;-69
2023/11/20 01:38:16;;;;;;;8.10;5.60;;;;;;;-1.03;64.96;100131.21;107696;1257;61254;-68
2023/11/20 01:40:44;;;;;;;11.40;6.10;;;;;;;-1.04;64.98;100125.48;107745;1257;60068;-68
2023/11/20 01:43:13;;;;;;;10.70;7.20;;;;;;;-1.04;64.97;100118.19;107847;1257;74728;-67
2023/11/20 01:45:41;;;;;;;9.60;6.50;;;;;;;-1.04;65.23;100121.29;107396;1257;239548;-69
2023/11/20 01:48:10;;;;;;;8.90;6.00;;;;;;;-1.05;65.12;100125.59;107853;1257;72752;-69
2023/11/20 01:50:39;;;;;;;9.60;6.40;;;;;;;-1.06;65.27;100123.84;107907;1257;61420;-67
2023/11/20 01:53:09;;;;;;;9.50;7.00;;;;;;;-1.06;65.46;100125.55;107723;1258;61165;-68
2023/11/20 01:55:51;;;;;;;9.50;6.40;;;;;;;-1.06;65.49;100126.92;107747;1257;73859;-69
2023/11/20 01:58:34;;;;;;;10.30;6.60;;;;;;;-1.08;65.23;100127.15;107840;1257;71385;-69
2023/11/20 02:01:07;;;;;;;11.00;6.60;;;;;;;-1.09;65.47;100132.86;107609;1260;74798;-68
2023/11/20 02:03:39;;;;;;;10.20;6.20;;;;;;;-1.10;65.30;100131.40;107824;1257;61211;-69
2023/11/20 02:06:10;;;;;;;10.10;6.30;;;;;;;-1.11;65.63;100127.56;107628;1258;61301;-68
2023/11/20 02:08:44;;;;;;;10.70;6.80;;;;;;;-1.12;65.39;100127.48;107800;1257;73846;-68
2023/11/20 02:11:14;;;;;;;10.80;7.20;;;;;;;-1.10;65.81;100125.27;107706;1257;74300;-68
2023/11/20 02:13:42;;;;;;;11.00;7.10;;;;;;;-1.07;65.57;100125.54;107801;1257;72759;-67
2023/11/20 02:16:11;;;;;;;9.90;6.60;;;;;;;-1.04;65.83;100123.58;107831;1257;61125;-67
2023/11/20 02:18:39;;;;;;;10.20;6.70;;;;;;;-1.02;65.77;100125.19;107670;1257;60530;-67
2023/11/20 02:21:12;;;;;;;9.90;5.90;;;;;;;-1.02;65.60;100123.46;107794;1257;74730;-67
2023/11/20 02:23:40;;;;;;;8.00;5.00;;;;;;;-1.03;65.54;100116.00;107782;1257;72774;-67
2023/11/20 02:26:41;;;;;;;9.70;6.00;;;;;;;-1.04;65.53;100107.66;107833;1257;72681;-68
2023/11/20 02:29:36;;;;;;;10.50;6.70;;;;;;;-1.04;65.46;100101.93;107836;1257;61240;-68
2023/11/20 02:32:17;;;;;;;9.80;6.60;;;;;;;-1.06;65.70;100102.67;107820;1259;61089;-68
2023/11/20 02:34:59;;;;;;;10.60;6.30;;;;;;;-1.05;65.70;100101.52;108001;1257;74623;-68
2023/11/20 02:38:06;;;;;;;9.90;6.80;;;;;;;-1.05;65.64;100102.30;107771;1258;74983;-68
2023/11/20 02:40:42;;;;;;;10.40;6.80;;;;;;;-1.03;65.65;100101.69;107839;1257;72956;-68
2023/11/20 02:43:14;;;;;;;10.00;6.90;;;;;;;-1.03;65.61;100101.69;107553;1257;61308;-68
2023/11/20 02:45:42;;;;;;;11.40;7.30;;;;;;;-1.04;65.57;100100.64;107821;1258;61245;-69
2023/11/20 02:48:10;;;;;;;11.20;7.30;;;;;;;-1.05;65.64;100094.33;107778;1257;74743;-68
2023/11/20 02:50:38;;;;;;;12.40;7.40;;;;;;;-1.05;65.80;100086.61;107815;1257;71477;-70
2023/11/20 02:53:05;;;;;;;9.80;6.80;;;;;;;-1.03;65.73;100084.27;107842;1260;71096;-68
2023/11/20 02:55:33;;;;;;;11.20;7.50;;;;;;;-1.03;65.90;100079.14;107815;1257;61273;-68
2023/11/20 02:58:01;;;;;;;10.00;7.10;;;;;;;-1.03;65.80;100084.91;107785;1257;59348;-68
2023/11/20 03:00:29;;;;;;;9.90;6.80;;;;;;;-1.04;65.65;100079.39;107994;1258;74500;-69
2023/11/20 03:02:57;;;;;;;10.90;6.70;;;;;;;-1.06;65.90;100084.29;107602;1257;71967;-69
2023/11/20 03:05:25;;;;;;;10.50;7.30;;;;;;;-1.08;65.81;100078.77;107776;1257;71252;-70
2023/11/20 03:07:53;;;;;;;9.90;6.70;;;;;;;-1.07;65.88;100072.84;107822;1257;61248;-68
2023/11/20 03:10:20;;;;;;;8.30;5.80;;;;;;;-1.05;65.94;100073.36;107796;1257;59461;-68
2023/11/20 03:12:48;;;;;;;10.60;7.00;;;;;;;-1.03;66.02;100068.83;107841;1257;73459;-69
2023/11/20 03:15:16;;;;;;;10.50;6.90;;;;;;;-1.02;66.07;100067.55;107875;1261;73439;-68
2023/11/20 03:17:43;;;;;;;11.40;6.90;;;;;;;-1.03;65.98;100064.34;107707;1257;72479;-70
2023/11/20 03:20:12;;;;;;;9.70;6.70;;;;;;;-1.05;66.04;100061.27;107790;1259;62249;-68
2023/11/20 03:22:40;;;;;;;12.70;7.10;;;;;;;-1.07;65.77;100056.31;107878;1257;61154;-68
2023/11/20 03:25:09;;;;;;;9.50;6.40;;;;;;;-1.07;65.83;100055.05;107887;1259;73726;-68
2023/11/20 03:27:38;;;;;;;9.40;6.60;;;;;;;-1.09;65.73;100054.77;107796;1259;72753;-69
2023/11/20 03:30:06;;;;;;;12.00;7.40;;;;;;;-1.13;65.79;100051.10;107769;1257;71278;-68
2023/11/20 03:32:35;;;;;;;10.20;7.00;;;;;;;-1.14;65.78;100050.02;107684;1263;61197;-68
2023/11/20 03:35:05;;;;;;;10.20;6.60;;;;;;;-1.15;65.95;100051.34;107772;1262;61021;-68
2023/11/20 03:37:34;;;;;;;9.50;6.90;;;;;;;-1.16;65.94;100047.77;107765;1257;74594;-68
2023/11/20 03:40:03;;;;;;;9.40;6.40;;;;;;;-1.16;65.97;100047.17;107699;1257;72895;-68
2023/11/20 03:42:31;;;;;;;11.40;7.00;;;;;;;-1.16;65.93;100044.83;107782;1258;72655;-68
2023/11/20 03:44:59;;;;;;;10.60;7.30;;;;;;;-1.14;66.13;100041.66;107604;1260;61276;-68
2023/11/20 03:47:26;;;;;;;9.80;6.40;;;;;;;-1.13;66.20;100039.61;107771;1257;61089;-68
2023/11/20 03:49:54;;;;;;;10.70;6.90;;;;;;;-1.13;66.12;100039.05;107871;1257;73622;-68
2023/11/20 03:52:22;;;;;;;8.60;5.90;;;;;;;-1.13;66.03;100037.63;107712;1257;72934;-68
2023/11/20 03:54:49;;;;;;;12.10;7.50;;;;;;;-1.14;66.07;100038.48;107735;1257;72699;-68
2023/11/20 03:57:17;;;;;;;10.50;6.90;;;;;;;-1.16;66.05;100035.03;107832;1257;61097;-69
2023/11/20 03:59:44;;;;;;;9.60;7.00;;;;;;;-1.15;66.12;100031.66;107820;1257;61100;-68
2023/11/20 04:02:12;;;;;;;11.30;7.70;;;;;;;-1.13;66.32;100029.34;107843;1257;73481;-68
2023/11/20 04:04:39;;;;;;;11.00;7.40;;;;;;;-1.12;66.39;100034.00;107748;1257;71725;-69
2023/11/20 04:07:07;;;;;;;11.20;7.60;;;;;;;-1.12;66.44;100030.89;107859;1257;72970;-68
2023/11/20 04:09:35;;;;;;;10.60;6.50;;;;;;;-1.12;66.47;100028.85;107759;1257;61200;-68
2023/11/20 04:12:03;;;;;;;9.40;6.60;;;;;;;-1.15;66.26;100024.96;107829;1257;61055;-68
2023/11/20 04:14:31;;;;;;;12.10;7.40;;;;;;;-1.15;66.43;100023.27;107857;1257;74921;-68
2023/11/20 04:16:59;;;;;;;12.70;7.60;;;;;;;-1.15;66.35;100022.67;107721;1257;71626;-68
2023/11/20 04:19:27;;;;;;;10.60;7.00;;;;;;;-1.15;66.28;100025.20;107858;1259;72086;-68
2023/11/20 04:21:55;;;;;;;9.20;6.70;;;;;;;-1.17;66.45;100022.14;107741;1257;59795;-69
2023/11/20 04:24:23;;;;;;;11.00;6.60;;;;;;;-1.21;66.41;100024.86;107667;1257;61213;-69
2023/11/20 04:26:51;;;;;;;10.10;6.50;;;;;;;-1.24;66.30;100018.80;107819;1257;73395;-69
2023/11/20 04:29:18;;;;;;;12.70;7.20;;;;;;;-1.25;66.41;100024.79;107841;1258;70720;-68
2023/11/20 04:31:46;;;;;;;10.40;7.00;;;;;;;-1.24;66.54;100026.05;107670;1260;71389;-69
2023/11/20 04:34:14;;;;;;;11.70;7.20;;;;;;;-1.23;66.42;100031.86;107786;1257;61116;-69
2023/11/20 04:36:41;;;;;;;10.70;6.40;;;;;;;-1.22;66.72;100030.73;107739;1257;61616;-69
2023/11/20 04:39:09;;;;;;;10.00;6.50;;;;;;;-1.21;66.50;100026.59;107849;1257;74676;-70
2023/11/20 04:41:38;;;;;;;9.40;6.80;;;;;;;-1.21;66.48;100028.25;107831;1257;71574;-69
2023/11/20 04:44:06;;;;;;;10.90;6.70;;;;;;;-1.19;66.62;100030.52;107744;1259;72760;-69
2023/11/20 04:46:34;;;;;;;12.00;8.00;;;;;;;-1.17;66.76;100025.12;107736;1260;60178;-69
2023/11/20 04:49:01;;;;;;;12.20;8.00;;;;;;;-1.15;66.85;100025.33;107802;1257;61200;-68
2023/11/20 04:51:30;;;;;;;12.70;7.60;;;;;;;-1.13;66.82;100028.56;107750;1257;74836;-68
2023/11/20 04:53:57;;;;;;;9.70;7.00;;;;;;;-1.14;66.77;100027.30;107714;1257;73017;-69
2023/11/20 04:56:25;;;;;;;10.50;7.10;;;;;;;-1.14;66.68;100026.64;107869;1257;71452;-69
2023/11/20 04:58:53;;;;;;;10.90;7.40;;;;;;;-1.16;66.63;100022.27;107833;1259;61128;-69
2023/11/20 05:01:22;;;;;;;12.10;7.60;;;;;;;-1.16;66.77;100021.33;107848;1257;61269;-69
2023/11/20 05:03:50;;;;;;;10.60;7.10;;;;;;;-1.17;66.36;100017.94;107855;1257;74657;-69
2023/11/20 05:06:18;;;;;;;13.10;8.00;;;;;;;-1.20;66.62;100018.05;107779;1258;72444;-69
2023/11/20 05:08:46;;;;;;;10.90;6.90;;;;;;;-1.22;66.55;100012.76;107836;1257;71256;-68
2023/11/20 05:11:14;;;;;;;10.60;6.50;;;;;;;-1.23;66.70;100016.48;107857;1257;60837;-69
2023/11/20 05:13:42;;;;;;;12.50;7.10;;;;;;;-1.25;66.59;100013.91;108058;1257;61697;-68
2023/11/20 05:16:11;;;;;;;10.40;6.90;;;;;;;-1.25;66.63;100012.91;107882;1257;73611;-69
2023/11/20 05:18:38;;;;;;;10.30;7.40;;;;;;;-1.25;66.52;100014.31;107828;1257;72925;-68
2023/11/20 05:21:06;;;;;;;13.60;7.90;;;;;;;-1.25;66.76;100017.52;107779;1259;71867;-69
2023/11/20 05:23:34;;;;;;;12.70;8.00;;;;;;;-1.24;66.71;100022.55;107769;1262;61261;-69
2023/11/20 05:26:05;;;;;;;10.80;7.30;;;;;;;-1.24;66.83;100024.67;107826;1259;60119;-68
2023/11/20 05:28:33;;;;;;;11.50;7.80;;;;;;;-1.25;66.54;100025.80;107879;1259;74642;-69
2023/11/20 05:31:00;;;;;;;11.00;7.10;;;;;;;-1.24;66.94;100029.36;107699;1258;72728;-69
2023/11/20 05:33:30;;;;;;;12.20;7.60;;;;;;;-1.22;66.95;100031.41;107808;1260;71653;-69
2023/11/20 05:35:57;;;;;;;10.40;7.10;;;;;;;-1.21;66.95;100031.23;107730;1258;61085;-69
2023/11/20 05:38:25;;;;;;;11.30;7.90;;;;;;;-1.17;67.05;100037.65;107738;1259;61129;-68
2023/11/20 05:40:52;;;;;;;12.50;7.40;;;;;;;-1.16;66.77;100032.66;107818;1259;74698;-68
2023/11/20 05:43:20;;;;;;;12.10;6.60;;;;;;;-1.16;66.93;100033.66;107645;1257;72862;-68
2023/11/20 05:45:48;;;;;;;10.10;6.80;;;;;;;-1.15;66.86;100031.81;107666;1259;72703;-68
2023/11/20 05:48:15;;;;;;;11.60;7.30;;;;;;;-1.15;66.61;100038.63;107685;1257;61127;-68
2023/11/20 05:50:43;;;;;;;11.10;7.50;;;;;;;-1.16;67.03;100040.88;107799;1257;60724;-68
2023/11/20 05:53:11;;;;;;;11.50;7.50;;;;;;;-1.13;66.88;100040.66;107874;1257;74122;-68
2023/11/20 05:55:39;;;;;;;11.50;7.60;;;;;;;-1.08;66.85;100045.41;107794;1257;71621;-70
2023/11/20 05:58:06;;;;;;;13.60;8.30;;;;;;;-1.04;66.72;100042.17;107779;1259;71127;-69
2023/11/20 06:00:34;;;;;;;10.60;7.40;;;;;;;-1.03;66.87;100043.30;107760;1260;60580;-69
2023/11/20 06:03:01;;;;;;;11.20;7.90;;;;;;;-1.00;66.81;100046.27;107881;1262;59932;-69
2023/11/20 06:05:29;;;;;;;10.20;7.00;;;;;;;-0.99;66.48;100050.90;107764;1258;75606;-69
2023/11/20 06:07:57;;;;;;;11.00;7.30;;;;;;;-1.00;66.39;100043.47;107819;1257;72559;-69
2023/11/20 06:10:24;;;;;;;12.80;7.60;;;;;;;-1.00;66.40;100043.02;107800;1258;72610;-69
2023/11/20 06:12:52;;;;;;;10.90;6.80;;;;;;;-0.98;66.27;100039.62;107808;1262;61154;-69
2023/11/20 06:15:20;;;;;;;11.00;7.60;;;;;;;-0.96;66.38;100043.30;107794;1258;61028;-69
2023/11/20 06:17:47;;;;;;;10.50;6.60;;;;;;;-0.94;66.23;100044.64;108004;1257;74669;-69
2023/11/20 06:20:15;;;;;;;10.20;7.70;;;;;;;-0.92;66.21;100051.38;107801;1257;71278;-69
2023/11/20 06:22:42;;;;;;;11.50;6.50;;;;;;;-0.90;66.21;100052.80;107795;1258;72824;-69
2023/11/20 06:25:12;;;;;;;10.80;7.20;;;;;;;-0.88;66.15;100054.72;107686;1259;61180;-70
2023/11/20 06:27:40;;;;;;;11.00;6.50;;;;;;;-0.86;66.09;100053.46;107824;1259;61202;-70
2023/11/20 06:30:09;;;;;;;10.90;7.10;;;;;;;-0.86;66.07;100048.17;107824;1259;74696;-69
2023/11/20 06:32:37;;;;;;;10.20;6.80;;;;;;;-0.84;66.11;100047.44;107768;1259;71496;-69
2023/11/20 06:35:05;;;;;;;10.20;6.70;;;;;;;-0.81;66.03;100049.26;107786;1259;72652;-69
2023/11/20 06:37:32;;;;;;;10.40;6.50;;;;;;;-0.78;66.03;100050.32;107841;1262;61153;-69
2023/11/20 06:40:00;;;;;;;10.30;7.20;;;;;;;-0.77;65.83;100047.17;107800;1263;61261;-71
2023/11/20 06:42:27;;;;;;;11.20;7.20;;;;;;;-0.73;65.99;100044.05;107760;1259;74645;-69
2023/11/20 06:44:55;;;;;;;12.00;7.50;;;;;;;-0.68;65.99;100042.41;107770;1257;72738;-68
2023/11/20 06:47:23;;;;;;;9.90;6.90;;;;;;;-0.64;66.08;100042.23;107918;1257;71487;-69
2023/11/20 06:49:51;;;;;;;9.90;6.60;;;;;;;-0.60;65.70;100042.67;107766;1257;61103;-68
2023/11/20 06:52:19;;;;;;;13.30;8.00;;;;;;;-0.61;65.68;100039.98;107913;1258;61174;-70
2023/11/20 06:54:46;;;;;;;10.40;7.80;;;;;;;-0.59;65.55;100042.80;107709;1257;74700;-68
2023/11/20 06:57:14;;;;;;;12.50;7.60;;;;;;;-0.58;65.63;100042.16;107718;1257;72584;-69
2023/11/20 06:59:44;;;;;;;11.70;6.90;;;;;;;-0.53;65.58;100041.26;107638;1257;72838;-69
2023/11/20 07:02:12;;;;;;;11.90;7.50;;;;;;;-0.50;65.59;100040.82;107756;1262;61134;-69
2023/11/20 07:04:44;;;;;;;11.80;7.10;;;;;;;-0.47;65.33;100043.58;107818;1257;61221;-70
2023/11/20 07:07:12;;;;;;;13.00;7.80;;;;;;;-0.46;65.30;100042.00;107716;1257;74654;-71
2023/11/20 07:09:40;;;;;;;12.50;8.40;;;;;;;-0.49;65.24;100045.55;107766;1257;72069;-70
2023/11/20 07:12:08;;;;;;;10.50;6.80;;;;;;;-0.51;65.03;100039.70;107732;1257;72703;-70
2023/11/20 07:14:36;;;;;;;10.50;7.20;;;;;;;-0.54;64.86;100037.98;107746;1257;61206;-69
2023/11/20 07:17:04;;;;;;;11.40;8.00;;;;;;;-0.57;65.01;100037.45;107733;1257;61076;-69
2023/11/20 07:19:31;;;;;;;14.40;8.70;;;;;;;-0.57;65.04;100033.13;107703;1257;72154;-69
2023/11/20 07:21:59;;;;;;;15.00;9.70;;;;;;;-0.55;65.18;100031.09;107752;1257;72034;-69
2023/11/20 07:24:28;;;;;;;12.20;8.70;;;;;;;-0.52;65.29;100029.59;107705;1259;72433;-69
2023/11/20 07:26:56;;;;;;;16.10;10.30;;;;;;;-0.51;65.49;100030.08;107741;1257;61410;-69
2023/11/20 07:29:25;;;;;;;14.00;10.10;;;;;;;-0.49;65.56;100023.64;107736;1257;62258;-69
2023/11/20 07:31:52;;;;;;;17.10;10.80;;;;;;;-0.43;65.51;100024.95;107620;1257;74702;-69
2023/11/20 07:34:21;;;;;;;16.00;10.80;;;;;;;-0.39;65.38;100024.91;107800;1257;72488;-69
2023/11/20 07:36:57;;;;;;;15.10;10.70;;;;;;;-0.36;65.35;100022.33;107760;1258;72470;-69
2023/11/20 07:39:27;;;;;;;16.60;10.90;;;;;;;-0.31;65.62;100014.39;107696;1257;61122;-69
2023/11/20 07:42:00;;;;;;;14.20;10.30;;;;;;;-0.30;65.19;100016.50;107945;1259;61024;-68
2023/11/20 07:44:28;;;;;;;15.40;10.60;;;;;;;-0.24;65.16;100011.23;107771;1257;73406;-68
2023/11/20 07:47:04;;;;;;;19.10;10.20;;;;;;;-0.18;65.34;100009.93;107641;1262;74943;-69
2023/11/20 07:49:40;;;;;;;18.80;10.70;;;;;;;-0.11;65.19;100006.72;107883;1257;72247;-67
2023/11/20 07:52:14;;;;;;;17.80;9.60;;;;;;;0.01;65.50;100004.83;107792;1260;61475;-67
2023/11/20 07:54:42;;;;;;;14.10;9.20;;;;;;;0.13;65.28;100006.33;107818;1257;60128;-69
2023/11/20 07:57:15;;;;;;;18.60;9.50;;;;;;;0.23;64.85;100004.87;107712;1258;74729;-69
2023/11/20 08:00:11;;;;;;;15.00;9.60;;;;;;;0.29;64.40;100004.06;107729;1258;75036;-69
2023/11/20 08:02:51;;;;;;;15.40;9.80;;;;;;;0.32;63.77;99996.36;107866;1259;71176;-69
2023/11/20 08:05:20;;;;;;;14.80;9.30;;;;;;;0.37;63.78;100000.41;107704;1259;61086;-68
2023/11/20 08:07:50;;;;;;;13.40;8.40;;;;;;;0.45;63.86;100002.70;107763;1259;61783;-68
2023/11/20 08:10:18;;;;;;;15.70;9.20;;;;;;;0.52;63.55;99998.94;107793;1259;73492;-68
2023/11/20 08:12:46;;;;;;;13.90;8.90;;;;;;;0.57;63.25;99995.29;107729;1259;74300;-68
2023/11/20 08:15:14;;;;;;;17.00;9.70;;;;;;;0.63;63.23;99995.16;107724;1262;72776;-69
2023/11/20 08:17:41;;;;;;;13.00;8.80;;;;;;;0.70;63.06;99994.01;107806;1259;61813;-70
2023/11/20 08:20:10;;;;;;;13.00;8.60;;;;;;;0.77;62.84;99994.31;107692;1259;61067;-70
2023/11/20 08:22:39;;;;;;;14.00;9.50;;;;;;;0.78;62.32;99989.63;85080;1259;10002220;-68
2023/11/20 08:25:21;;;;;;;15.00;10.00;;;;;;;0.80;62.39;99991.52;107570;1259;61333;-68
2023/11/20 08:27:54;;;;;;;14.00;9.20;;;;;;;0.84;62.28;99990.58;107541;1258;70378;-68
2023/11/20 08:30:33;;;;;;;14.20;9.30;;;;;;;0.86;62.02;99994.91;107673;1257;72130;-66
2023/11/20 08:33:02;;;;;;;15.80;8.80;;;;;;;0.88;61.91;99988.71;107676;1257;61093;-65
2023/11/20 08:35:30;;;;;;;13.20;9.50;;;;;;;0.91;61.90;99984.92;107555;1260;61171;-66
2023/11/20 08:37:58;;;;;;;13.00;8.70;;;;;;;0.96;61.87;99983.21;107575;1262;73477;-67
2023/11/20 08:40:25;;;;;;;13.90;9.30;;;;;;;1.03;61.70;99979.87;107583;1262;72042;-66
2023/11/20 08:43:08;;;;;;;14.90;10.10;;;;;;;1.05;61.47;99975.77;107569;1260;74471;-67
2023/11/20 08:45:36;;;;;;;15.40;10.00;;;;;;;1.07;61.40;99976.73;107748;1260;61128;-68
2023/11/20 08:48:08;;;;;;;16.00;10.20;;;;;;;1.07;61.14;99976.54;107553;1259;61661;-66
2023/11/20 08:50:47;;;;;;;13.70;9.00;;;;;;;1.07;61.28;99971.89;107668;1259;74758;-68
2023/11/20 08:53:25;;;;;;;15.50;8.70;;;;;;;1.10;61.12;99974.30;107557;1260;72762;-68
2023/11/20 08:55:53;;;;;;;12.40;8.50;;;;;;;1.15;61.16;99971.98;107566;1257;71129;-68
2023/11/20 08:58:21;;;;;;;16.30;9.00;;;;;;;1.21;61.11;99973.17;107883;1258;60931;-65
2023/11/20 09:01:02;;;;;;;13.90;9.20;;;;;;;1.25;60.90;99969.58;108771;1257;60063;-66
2023/11/20 09:03:56;;;;;;;12.30;8.70;;;;;;;1.31;61.02;99965.49;107563;1259;74838;-66
2023/11/20 09:06:24;;;;;;;13.20;8.30;;;;;;;1.34;60.91;99962.77;107641;1260;71436;-67
2023/11/20 09:08:52;;;;;;;13.80;8.50;;;;;;;1.41;60.99;99957.18;107670;1260;74850;-67
2023/11/20 09:11:21;;;;;;;12.50;8.70;;;;;;;1.51;61.07;99951.50;107840;1257;61781;-67
2023/11/20 09:13:50;;;;;;;13.30;8.30;;;;;;;1.57;60.85;99950.30;108879;1257;59913;-67
2023/11/20 09:16:19;;;;;;;14.80;8.40;;;;;;;1.56;60.45;99950.52;108882;1258;73476;-68
2023/11/20 09:18:47;;;;;;;13.60;8.70;;;;;;;1.57;60.33;99944.81;107705;1260;71465;-67
2023/11/20 09:21:15;;;;;;;12.20;8.00;;;;;;;1.60;60.51;99942.98;107621;1260;74804;-67
2023/11/20 09:23:44;;;;;;;14.00;9.50;;;;;;;1.64;60.26;99943.48;107582;1259;61516;-66
2023/11/20 09:26:12;;;;;;;15.80;8.50;;;;;;;1.72;60.52;99947.03;107540;1259;61187;-66
2023/11/20 09:28:40;;;;;;;14.50;8.80;;;;;;;1.77;60.03;99945.77;107537;1259;74829;-67
2023/11/20 09:31:18;;;;;;;12.30;8.30;;;;;;;1.81;60.23;99945.75;107442;1262;72513;-66
2023/11/20 09:33:48;;;;;;;15.70;9.30;;;;;;;1.89;59.82;99947.27;107541;1260;71503;-66
2023/11/20 09:36:18;;;;;;;12.50;8.80;;;;;;;1.95;59.96;99945.88;108970;1257;59118;-67
2023/11/20 09:38:46;;;;;;;12.50;8.60;;;;;;;2.02;59.85;99939.39;107536;1258;61081;-66
2023/11/20 09:41:14;;;;;;;11.00;8.40;;;;;;;2.12;59.75;99936.66;107577;1259;73497;-66
2023/11/20 09:43:43;;;;;;;18.00;8.70;;;;;;;2.20;59.54;99944.54;107604;1260;72110;-67
2023/11/20 09:46:11;;;;;;;15.60;8.40;;;;;;;2.24;59.32;99938.34;107538;1262;72696;-68
2023/11/20 09:48:39;;;;;;;14.20;8.70;;;;;;;2.25;59.10;99937.55;107577;1260;61339;-66
2023/11/20 09:51:10;;;;;;;14.20;8.90;;;;;;;2.23;58.97;99933.85;107550;1262;61210;-66
2023/11/20 09:53:41;;;;;;;12.50;8.50;;;;;;;2.18;59.01;99931.90;107656;1262;74827;-67
2023/11/20 09:56:13;;;;;;;14.50;9.10;;;;;;;2.18;58.83;99929.42;107512;1259;75388;-66
2023/11/20 09:58:41;;;;;;;15.00;9.00;;;;;;;2.22;58.83;99925.58;107563;1257;72706;-65
2023/11/20 10:01:12;;;;;;;13.70;8.60;;;;;;;2.24;58.58;99922.64;107758;1258;61209;-65
2023/11/20 10:03:41;;;;;;;13.90;8.70;;;;;;;2.28;58.57;99920.81;107664;1257;61110;-65
2023/11/20 10:06:13;;;;;;;15.00;9.00;;;;;;;2.31;58.47;99921.77;107600;1259;74697;-65
2023/11/20 10:08:43;;;;;;;16.70;9.60;;;;;;;2.34;58.44;99922.30;107851;1257;74690;-68
2023/11/20 10:11:13;;;;;;;14.70;9.50;;;;;;;2.39;58.40;99919.61;107758;1260;71721;-69
2023/11/20 10:13:41;;;;;;;13.60;9.00;;;;;;;2.45;58.45;99921.95;107680;1260;59366;-68
2023/11/20 10:16:13;;;;;;;13.60;9.40;;;;;;;2.50;58.36;99924.00;107636;1260;61187;-65
2023/11/20 10:18:42;;;;;;;13.50;8.90;;;;;;;2.52;58.12;99920.41;107593;1257;73521;-66
2023/11/20 10:21:11;;;;;;;13.90;9.10;;;;;;;2.53;57.97;99916.92;107464;1260;72600;-67
2023/11/20 10:23:39;;;;;;;10.60;7.50;;;;;;;2.58;58.08;99918.31;107819;1260;73072;-66
2023/11/20 10:26:07;;;;;;;12.60;8.80;;;;;;;2.60;57.94;99914.31;107765;1258;61439;-68
2023/11/20 10:28:39;;;;;;;13.90;8.50;;;;;;;2.67;58.01;99912.93;107850;1260;61609;-66
2023/11/20 10:31:07;;;;;;;12.60;8.70;;;;;;;2.77;57.77;99914.95;107548;1258;74821;-66
2023/11/20 10:33:35;;;;;;;13.70;8.40;;;;;;;2.82;57.39;99913.81;107379;1260;71586;-66
2023/11/20 10:36:14;;;;;;;13.40;9.20;;;;;;;2.84;57.23;99913.47;107729;1259;72516;-67
2023/11/20 10:38:43;;;;;;;12.00;7.30;;;;;;;2.88;57.12;99908.83;107807;1258;61097;-65
2023/11/20 10:41:11;;;;;;;11.80;8.00;;;;;;;2.92;56.93;99908.42;107764;1262;61158;-67
2023/11/20 10:43:40;;;;;;;11.40;7.90;;;;;;;2.94;56.72;99901.87;107797;1262;73387;-67
2023/11/20 10:46:09;;;;;;;14.40;8.80;;;;;;;2.98;56.81;99910.58;107768;1260;71505;-65
2023/11/20 10:48:37;;;;;;;13.10;8.50;;;;;;;3.02;56.58;99907.73;107742;1260;72521;-66
2023/11/20 10:51:10;;;;;;;12.40;8.50;;;;;;;3.05;56.44;99907.27;107806;1260;61244;-66
2023/11/20 10:53:42;;;;;;;12.60;8.40;;;;;;;3.09;56.45;99905.89;107706;1257;62255;-66
2023/11/20 10:56:11;;;;;;;12.30;8.00;;;;;;;3.12;56.08;99904.59;107707;1260;75029;-67
2023/11/20 10:58:43;;;;;;;13.00;8.10;;;;;;;3.13;55.85;99908.45;107772;1257;72844;-66
2023/11/20 11:01:11;;;;;;;10.60;7.20;;;;;;;3.15;55.78;99909.54;107709;1258;72711;-66
2023/11/20 11:03:40;;;;;;;10.30;7.10;;;;;;;3.15;55.45;99903.94;107702;1258;61019;-70
2023/11/20 11:06:11;;;;;;;11.70;7.60;;;;;;;3.17;55.16;99905.75;107740;1257;61023;-66
2023/11/20 11:08:45;;;;;;;11.60;7.80;;;;;;;3.17;55.19;99903.15;107803;1257;75051;-67
2023/11/20 11:11:14;;;;;;;14.00;9.50;;;;;;;3.20;55.25;99901.44;107800;1260;71421;-67
2023/11/20 11:13:43;;;;;;;9.70;7.20;;;;;;;3.21;54.96;99901.79;107792;1260;72800;-67
2023/11/20 11:16:29;;;;;;;12.40;8.50;;;;;;;3.22;55.01;99902.83;107728;1262;61727;-66
2023/11/20 11:19:02;;;;;;;10.60;7.00;;;;;;;3.26;54.75;99904.55;107774;1258;62173;-66
2023/11/20 11:21:38;;;;;;;10.40;6.70;;;;;;;3.28;54.74;99897.00;107801;1259;72822;-68
2023/11/20 11:24:09;;;;;;;8.70;6.50;;;;;;;3.31;54.70;99896.44;107760;1259;72791;-66
2023/11/20 11:26:59;;;;;;;9.70;6.60;;;;;;;3.35;54.62;99894.90;107788;1260;72977;-67